Aviation Digital Data Service (ADDS)

Output produced by METARs form (1300 UTC 21 November 2018)
found at http://www.aviationweather.gov/metar/data/
 
LHPR 211215Z 13005KT 100V170 8000 OVC006 05/04 Q1016 RMK YLO
LHPR 211145Z 15005KT 6000 OVC006 05/05 Q1016 RMK YLO
LHPR 211115Z 14005KT 110V170 6000 NSC 05/04 Q1016 RMK WHT
LHPR 211045Z 12006KT 8000 OVC006 05/04 Q1016 RMK YLO
LHPR 211015Z 11007KT 6000 OVC006 05/04 Q1016 RMK YLO
LHPR 210945Z 11007KT 6000 OVC006 05/04 Q1016 RMK YLO
LHPR 210915Z 10007KT 6000 OVC006 05/05 Q1016 RMK YLO
LHPR 210845Z 11006KT 5000 OVC005 05/05 Q1016 RMK YLO
LHPR 210815Z 12006KT 080V150 5000 BR OVC005 05/05 Q1016 RMK YLO
LHPR 210745Z 10005KT 5000 BR OVC005 05/05 Q1016 RMK YLO
LHPR 210715Z 08005KT 4000 -DZ BR OVC005 05/05 Q1016 RMK YLO
TAF LHPR 211115Z 2112/2121 13006KT 8000 OVC010 
     TEMPO 2112/2121 3000 BR DZ OVC002